createdAt,value
2017-03-10T00:00:11.449Z,0.73
2017-03-10T00:01:21.760Z,0.74
2017-03-10T00:02:32.467Z,0.82
2017-03-10T00:03:43.187Z,0.74
2017-03-10T00:04:53.879Z,0.74
2017-03-10T00:06:04.598Z,0.7
2017-03-10T00:07:15.294Z,0.74
2017-03-10T00:08:26.004Z,0.7
2017-03-10T00:09:36.725Z,0.7
2017-03-10T00:10:47.434Z,0.64
2017-03-10T00:11:58.143Z,0.67
2017-03-10T00:13:08.855Z,0.7
2017-03-10T00:14:19.555Z,0.76
2017-03-10T00:15:30.254Z,0.7
2017-03-10T00:16:40.981Z,0.74
2017-03-10T00:17:51.699Z,0.68
2017-03-10T00:19:02.406Z,0.73
2017-03-10T00:20:13.118Z,0.71
2017-03-10T00:21:23.418Z,0.76
2017-03-10T00:22:34.121Z,0.82
2017-03-10T00:23:44.830Z,0.78
2017-03-10T00:24:55.538Z,0.92
2017-03-10T00:26:06.252Z,0.91
2017-03-10T00:27:16.572Z,0.89
2017-03-10T00:28:27.275Z,0.85
2017-03-10T00:29:37.967Z,0.84
2017-03-10T00:30:48.688Z,0.85
2017-03-10T00:31:59.394Z,0.86
2017-03-10T00:33:10.117Z,0.86
2017-03-10T00:34:20.812Z,0.88
2017-03-10T00:35:30.711Z,0.85
2017-03-10T00:36:41.407Z,0.92
2017-03-10T00:37:52.139Z,0.95
2017-03-10T00:39:02.845Z,0.99
2017-03-10T00:40:13.548Z,1.03
2017-03-10T00:41:24.264Z,1.03
2017-03-10T00:42:34.991Z,1.09
2017-03-10T00:43:45.705Z,1.09
2017-03-10T00:44:56.397Z,1.18
2017-03-10T00:46:07.119Z,1.16
2017-03-10T00:47:17.442Z,1.21
2017-03-10T00:48:28.153Z,1.16
2017-03-10T00:49:38.497Z,1.21
2017-03-10T00:50:49.214Z,1.25
2017-03-10T00:51:59.930Z,1.27
2017-03-10T00:53:10.627Z,1.21
2017-03-10T00:54:21.327Z,1.25
2017-03-10T00:55:32.036Z,1.21
2017-03-10T00:56:42.803Z,1.25
2017-03-10T00:57:53.514Z,1.22
2017-03-10T00:59:04.237Z,1.24
2017-03-10T01:00:14.952Z,1.12
2017-03-10T01:01:25.677Z,1.21
2017-03-10T01:02:36.377Z,1.21
2017-03-10T01:03:47.096Z,1.16
2017-03-10T01:04:57.806Z,1.18
2017-03-10T01:06:07.712Z,1.07
2017-03-10T01:07:18.423Z,1
2017-03-10T01:08:28.345Z,0.99
2017-03-10T01:09:39.045Z,1.04
2017-03-10T01:10:49.783Z,0.89
2017-03-10T01:12:00.503Z,0.76
2017-03-10T01:13:11.218Z,0.71
2017-03-10T01:14:21.918Z,0.76
2017-03-10T01:15:31.833Z,0.76
2017-03-10T01:16:42.144Z,0.74
2017-03-10T01:17:52.872Z,0.7
2017-03-10T01:19:03.599Z,0.59
2017-03-10T01:20:14.298Z,0.48
2017-03-10T01:21:25.024Z,0.4
2017-03-10T01:22:35.718Z,0.4
2017-03-10T01:23:46.416Z,0.36
2017-03-10T01:24:56.733Z,0.39
2017-03-10T01:26:07.463Z,0.29
2017-03-10T01:27:18.183Z,0.49
2017-03-10T01:28:28.894Z,0.45
2017-03-10T01:29:39.599Z,0.48
2017-03-10T01:30:50.306Z,0.45
2017-03-10T01:32:01.000Z,0.47
2017-03-10T01:33:11.343Z,0.44
2017-03-10T01:34:22.045Z,0.42
2017-03-10T01:35:32.746Z,0.36
2017-03-10T01:36:43.459Z,0.33
2017-03-10T01:37:54.168Z,0.33
2017-03-10T01:39:04.875Z,0.33
2017-03-10T01:40:15.603Z,0.3
2017-03-10T01:41:25.905Z,0.31
2017-03-10T01:42:36.620Z,0.26
2017-03-10T01:43:47.317Z,0.33
2017-03-10T01:44:58.044Z,0.15
2017-03-10T01:46:08.746Z,-0.02
2017-03-10T01:47:19.050Z,0
2017-03-10T01:48:29.762Z,0.01
2017-03-10T01:49:40.469Z,0.05
2017-03-10T01:50:51.171Z,-0.02
2017-03-10T01:52:01.867Z,0.13
2017-03-10T01:53:12.581Z,0.08
2017-03-10T01:54:23.299Z,-0.02
2017-03-10T01:55:33.608Z,0.09
2017-03-10T01:56:44.327Z,-0.05
2017-03-10T01:57:55.026Z,-0.03
2017-03-10T01:59:05.756Z,-0.06
2017-03-10T02:00:16.446Z,-0.07
2017-03-10T02:01:27.159Z,-0.09
2017-03-10T02:02:37.863Z,-0.13
2017-03-10T02:03:48.555Z,-0.18
2017-03-10T02:04:59.252Z,-0.3
2017-03-10T02:06:09.552Z,-0.3
2017-03-10T02:07:20.276Z,-0.31
2017-03-10T02:08:30.589Z,-0.38
2017-03-10T02:09:40.903Z,-0.38
2017-03-10T02:10:51.594Z,-0.42
2017-03-10T02:12:02.283Z,-0.42
2017-03-10T02:13:12.993Z,-0.44
2017-03-10T02:14:23.716Z,-0.36
2017-03-10T02:15:34.030Z,-0.45
2017-03-10T02:16:44.730Z,-0.45
2017-03-10T02:17:55.441Z,-0.46
2017-03-10T02:19:06.134Z,-0.48
2017-03-10T02:20:16.851Z,-0.48
2017-03-10T02:21:27.583Z,-0.45
2017-03-10T02:22:37.920Z,-0.39
2017-03-10T02:23:48.635Z,-0.45
2017-03-10T02:24:59.368Z,-0.53
2017-03-10T02:26:10.077Z,-0.48
2017-03-10T02:27:20.765Z,-0.49
2017-03-10T02:28:31.471Z,-0.56
2017-03-10T02:29:42.207Z,-0.56
2017-03-10T02:30:52.949Z,-0.39
2017-03-10T02:32:03.695Z,-0.38
2017-03-10T02:33:13.995Z,-0.35
2017-03-10T02:34:24.335Z,-0.3
2017-03-10T02:35:35.067Z,-0.24
2017-03-10T02:36:45.757Z,-0.09
2017-03-10T02:37:56.463Z,-0.13
2017-03-10T02:39:07.162Z,-0.15
2017-03-10T02:40:17.886Z,0
2017-03-10T02:41:28.606Z,-0.07
2017-03-10T02:42:39.295Z,-0.06
2017-03-10T02:43:49.995Z,-0.02
2017-03-10T02:45:00.720Z,-0.07
2017-03-10T02:46:11.028Z,-0.07
2017-03-10T02:47:21.736Z,-0.09
2017-03-10T02:48:32.453Z,-0.06
2017-03-10T02:49:43.161Z,-0.12
2017-03-10T02:50:53.861Z,-0.07
2017-03-10T02:52:04.571Z,-0.12
2017-03-10T02:53:15.281Z,-0.05
2017-03-10T02:54:25.992Z,-0.09
2017-03-10T02:55:36.314Z,-0.23
2017-03-10T02:56:47.005Z,-0.26
2017-03-10T02:57:57.718Z,-0.41
2017-03-10T02:59:08.449Z,-0.35
2017-03-10T03:00:19.176Z,-0.36
2017-03-10T03:01:29.873Z,-0.42
2017-03-10T03:02:40.573Z,-0.63
2017-03-10T03:03:51.287Z,-0.69
2017-03-10T03:05:02.007Z,-0.77
2017-03-10T03:06:12.712Z,-0.82
2017-03-10T03:07:23.446Z,-0.85
2017-03-10T03:08:33.781Z,-0.85
2017-03-10T03:09:44.488Z,-0.97
2017-03-10T03:10:55.192Z,-0.94
2017-03-10T03:12:05.895Z,-0.87
2017-03-10T03:13:16.636Z,-0.7
2017-03-10T03:14:27.344Z,-0.54
2017-03-10T03:15:38.074Z,-0.51
2017-03-10T03:16:48.785Z,-0.41
2017-03-10T03:17:59.508Z,-0.41
2017-03-10T03:19:10.223Z,-0.35
2017-03-10T03:20:20.957Z,-0.28
2017-03-10T03:21:31.667Z,-0.33
2017-03-10T03:22:42.383Z,-0.13
2017-03-10T03:23:53.097Z,-0.12
2017-03-10T03:25:03.831Z,-0.13
2017-03-10T03:26:14.564Z,-0.13
2017-03-10T03:27:25.273Z,-0.07
2017-03-10T03:28:35.967Z,0.06
2017-03-10T03:29:46.670Z,-0.07
2017-03-10T03:30:57.389Z,0.05
2017-03-10T03:32:08.081Z,0.02
2017-03-10T03:33:18.795Z,0.06
2017-03-10T03:34:29.499Z,0.08
2017-03-10T03:35:39.806Z,0.08
2017-03-10T03:36:50.497Z,0.08
2017-03-10T03:38:01.277Z,0.18
2017-03-10T03:39:11.992Z,0.18
2017-03-10T03:40:22.688Z,0.18
2017-03-10T03:41:33.387Z,0.11
2017-03-10T03:42:44.089Z,0.24
2017-03-10T03:43:54.781Z,0.24
2017-03-10T03:45:05.506Z,0.31
2017-03-10T03:46:15.818Z,0.33
2017-03-10T03:47:26.517Z,0.29
2017-03-10T03:48:36.830Z,0.36
2017-03-10T03:49:47.529Z,0.36
2017-03-10T03:50:58.239Z,0.39
2017-03-10T03:52:08.935Z,0.26
2017-03-10T03:53:19.645Z,0.36
2017-03-10T03:54:30.365Z,0.29
2017-03-10T03:55:41.072Z,0.44
2017-03-10T03:56:51.775Z,0.34
2017-03-10T03:58:02.534Z,0.37
2017-03-10T03:59:13.245Z,0.27
2017-03-10T04:00:23.936Z,0.18
2017-03-10T04:01:34.643Z,0.18
2017-03-10T04:02:45.361Z,0.08
2017-03-10T04:03:56.053Z,0.08
2017-03-10T04:05:06.772Z,0.11
2017-03-10T04:06:17.500Z,0.08
2017-03-10T04:07:27.822Z,0.08
2017-03-10T04:08:38.146Z,0.12
2017-03-10T04:09:48.858Z,0.05
2017-03-10T04:10:59.551Z,0.15
2017-03-10T04:12:10.262Z,0.23
2017-03-10T04:13:20.992Z,0.18
2017-03-10T04:14:31.705Z,0.19
2017-03-10T04:15:42.411Z,0.12
2017-03-10T04:16:53.121Z,0.08
2017-03-10T04:18:03.822Z,0.11
2017-03-10T04:19:14.129Z,0.08
2017-03-10T04:20:24.823Z,-0.03
2017-03-10T04:21:35.537Z,-0.17
2017-03-10T04:22:46.233Z,-0.18
2017-03-10T04:23:56.922Z,-0.26
2017-03-10T04:25:07.641Z,-0.48
2017-03-10T04:26:18.349Z,-0.56
2017-03-10T04:27:29.044Z,-0.78
2017-03-10T04:28:39.786Z,-0.82
2017-03-10T04:29:50.491Z,-0.99
2017-03-10T04:31:01.195Z,-1.12
2017-03-10T04:32:11.909Z,-1.21
2017-03-10T04:33:22.596Z,-1.27
2017-03-10T04:34:33.319Z,-1.43
2017-03-10T04:35:44.035Z,-1.5
2017-03-10T04:36:54.747Z,-1.64
2017-03-10T04:38:05.447Z,-1.75
2017-03-10T04:39:16.163Z,-1.75
2017-03-10T04:40:26.879Z,-1.97
2017-03-10T04:41:37.579Z,-1.97
2017-03-10T04:42:48.278Z,-1.93
2017-03-10T04:43:58.987Z,-2.04
2017-03-10T04:45:09.735Z,-2.08
2017-03-10T04:46:20.450Z,-2.14
2017-03-10T04:47:31.152Z,-2.29
2017-03-10T04:48:41.880Z,-2.26
2017-03-10T04:49:52.569Z,-2.55
2017-03-10T04:51:02.867Z,-2.4
2017-03-10T04:52:13.187Z,-2.55
2017-03-10T04:53:23.911Z,-2.51
2017-03-10T04:54:34.618Z,-2.57
2017-03-10T04:55:45.343Z,-2.52
2017-03-10T04:56:56.053Z,-2.55
2017-03-10T04:58:06.757Z,-2.37
2017-03-10T04:59:17.461Z,-2.4
2017-03-10T05:00:28.145Z,-2.39
2017-03-10T05:01:38.063Z,-2.44
2017-03-10T05:02:48.773Z,-2.32
2017-03-10T05:03:59.512Z,-2.28
2017-03-10T05:05:10.248Z,-2.37
2017-03-10T05:06:20.945Z,-2.23
2017-03-10T05:07:31.638Z,-2.29
2017-03-10T05:08:42.326Z,-2.11
2017-03-10T05:09:53.044Z,-2.22
2017-03-10T05:11:03.773Z,-2.2
2017-03-10T05:12:14.479Z,-2.18
2017-03-10T05:13:25.170Z,-2.2
2017-03-10T05:14:35.866Z,-2.14
2017-03-10T05:15:46.583Z,-2.15
2017-03-10T05:16:57.279Z,-1.99
2017-03-10T05:18:07.986Z,-2.05
2017-03-10T05:19:18.684Z,-2
2017-03-10T05:20:28.976Z,-2
2017-03-10T05:21:39.707Z,-2.02
2017-03-10T05:22:50.401Z,-2.04
2017-03-10T05:24:01.123Z,-2.05
2017-03-10T05:25:11.433Z,-2.15
2017-03-10T05:26:21.757Z,-2.14
2017-03-10T05:27:32.466Z,-2.2
2017-03-10T05:28:43.181Z,-2.23
2017-03-10T05:29:53.872Z,-2.26
2017-03-10T05:31:04.579Z,-2.32
2017-03-10T05:32:15.290Z,-2.48
2017-03-10T05:33:25.983Z,-2.28
2017-03-10T05:34:36.683Z,-2.32
2017-03-10T05:35:47.392Z,-2.32
2017-03-10T05:36:58.101Z,-2.26
2017-03-10T05:38:08.831Z,-2.2
2017-03-10T05:39:19.544Z,-2.18
2017-03-10T05:40:30.253Z,-2.22
2017-03-10T05:41:40.560Z,-2.25
2017-03-10T05:42:51.270Z,-2.33
2017-03-10T05:44:01.974Z,-2.29
2017-03-10T05:45:12.289Z,-2.39
2017-03-10T05:46:22.983Z,-2.34
2017-03-10T05:47:33.703Z,-2.34
2017-03-10T05:48:44.425Z,-2.18
2017-03-10T05:49:55.126Z,-2.04
2017-03-10T05:51:05.815Z,-1.76
2017-03-10T05:52:16.508Z,-1.39
2017-03-10T05:53:27.221Z,-1.21
2017-03-10T05:54:37.925Z,-1.04
2017-03-10T05:55:48.241Z,-1.01
2017-03-10T05:56:58.954Z,-0.97
2017-03-10T05:58:09.677Z,-0.81
2017-03-10T05:59:20.372Z,-0.87
2017-03-10T06:00:31.080Z,-0.84
2017-03-10T06:01:41.782Z,-0.99
2017-03-10T06:02:52.489Z,-1.18
2017-03-10T06:04:03.181Z,-1.3
2017-03-10T06:05:13.493Z,-1.42
2017-03-10T06:06:24.191Z,-1.43
2017-03-10T06:07:34.893Z,-1.39
2017-03-10T06:08:45.590Z,-1.42
2017-03-10T06:09:56.306Z,-1.45
2017-03-10T06:11:07.028Z,-1.42
2017-03-10T06:12:17.733Z,-1.48
2017-03-10T06:13:28.443Z,-1.53
2017-03-10T06:14:39.129Z,-1.66
2017-03-10T06:15:49.433Z,-1.64
2017-03-10T06:17:00.125Z,-1.63
2017-03-10T06:18:10.451Z,-1.68
2017-03-10T06:19:21.154Z,-1.66
2017-03-10T06:20:31.850Z,-1.61
2017-03-10T06:21:42.167Z,-1.6
2017-03-10T06:22:52.867Z,-1.66
2017-03-10T06:24:03.578Z,-1.75
2017-03-10T06:25:13.892Z,-1.76
2017-03-10T06:26:24.606Z,-1.81
2017-03-10T06:27:35.306Z,-1.81
2017-03-10T06:28:46.015Z,-1.89
2017-03-10T06:29:56.330Z,-1.97
2017-03-10T06:31:07.026Z,-1.9
2017-03-10T06:32:17.748Z,-2.02
2017-03-10T06:33:28.455Z,-2.02
2017-03-10T06:34:39.150Z,-1.9
2017-03-10T06:35:49.878Z,-1.93
2017-03-10T06:37:00.578Z,-1.87
2017-03-10T06:38:11.289Z,-1.92
2017-03-10T06:39:21.591Z,-1.89
2017-03-10T06:40:31.911Z,-1.94
2017-03-10T06:41:42.622Z,-1.96
2017-03-10T06:42:53.320Z,-1.84
2017-03-10T06:44:04.037Z,-1.87
2017-03-10T06:45:14.739Z,-1.81
2017-03-10T06:46:25.464Z,-1.89
2017-03-10T06:47:36.190Z,-1.87
2017-03-10T06:48:46.884Z,-1.78
2017-03-10T06:49:57.202Z,-1.63
2017-03-10T06:51:07.939Z,-1.69
2017-03-10T06:52:18.662Z,-1.56
2017-03-10T06:53:28.562Z,-1.51
2017-03-10T06:54:39.305Z,-1.56
2017-03-10T06:55:50.022Z,-1.51
2017-03-10T06:57:00.724Z,-1.43
2017-03-10T06:58:11.445Z,-1.39
2017-03-10T06:59:22.154Z,-1.38
2017-03-10T07:00:32.888Z,-1.46
2017-03-10T07:01:43.226Z,-1.4
2017-03-10T07:02:53.918Z,-1.35
2017-03-10T07:04:04.617Z,-1.4
2017-03-10T07:05:15.334Z,-1.35
2017-03-10T07:06:26.051Z,-1.35
2017-03-10T07:07:36.740Z,-1.33
2017-03-10T07:08:47.439Z,-1.4
2017-03-10T07:09:58.144Z,-1.42
2017-03-10T07:11:08.862Z,-1.46
2017-03-10T07:12:19.550Z,-1.53
2017-03-10T07:13:30.256Z,-1.46
2017-03-10T07:14:40.962Z,-1.48
2017-03-10T07:15:51.688Z,-1.5
2017-03-10T07:17:02.398Z,-1.42
2017-03-10T07:18:13.136Z,-1.42
2017-03-10T07:19:23.839Z,-1.43
2017-03-10T07:20:34.140Z,-1.35
2017-03-10T07:21:44.101Z,-1.48
2017-03-10T07:22:54.812Z,-1.4
2017-03-10T07:24:05.539Z,-1.5
2017-03-10T07:25:15.442Z,-1.36
2017-03-10T07:26:26.156Z,-1.38
2017-03-10T07:27:36.855Z,-1.33
2017-03-10T07:28:47.556Z,-1.25
2017-03-10T07:29:57.874Z,-1.29
2017-03-10T07:31:08.573Z,-1.19
2017-03-10T07:32:18.888Z,-1.19
2017-03-10T07:33:29.224Z,-1.12
2017-03-10T07:34:39.930Z,-1.18
2017-03-10T07:35:50.629Z,-0.99
2017-03-10T07:37:01.323Z,-1.01
2017-03-10T07:38:11.701Z,-1.06
2017-03-10T07:39:22.393Z,-1.04
2017-03-10T07:40:33.096Z,-0.97
2017-03-10T07:41:43.786Z,-0.97
2017-03-10T07:42:54.524Z,-0.94
2017-03-10T07:44:05.219Z,-0.89
2017-03-10T07:45:15.539Z,-0.89
2017-03-10T07:46:26.262Z,-0.78
2017-03-10T07:47:36.967Z,-0.74
2017-03-10T07:48:47.692Z,-0.66
2017-03-10T07:49:58.000Z,-0.62
2017-03-10T07:51:08.306Z,-0.54
2017-03-10T07:52:18.623Z,-0.53
2017-03-10T07:53:28.935Z,-0.56
2017-03-10T07:54:39.639Z,-0.49
2017-03-10T07:55:50.342Z,-0.41
2017-03-10T07:57:01.077Z,-0.45
2017-03-10T07:58:11.772Z,-0.46
2017-03-10T07:59:22.485Z,-0.44
2017-03-10T08:00:32.788Z,-0.42
2017-03-10T08:01:43.501Z,-0.31
2017-03-10T08:02:54.199Z,-0.26
2017-03-10T08:04:04.914Z,-0.2
2017-03-10T08:05:15.655Z,-0.17
2017-03-10T08:06:26.360Z,-0.13
2017-03-10T08:07:37.068Z,-0.05
2017-03-10T08:08:47.778Z,-0.09
2017-03-10T08:09:58.489Z,0.08
2017-03-10T08:11:09.434Z,0.02
2017-03-10T08:12:20.144Z,0.12
2017-03-10T08:13:30.865Z,0.09
2017-03-10T08:14:41.597Z,0.19
2017-03-10T08:15:51.931Z,0.16
2017-03-10T08:17:02.659Z,0.2
2017-03-10T08:18:12.958Z,0.24
2017-03-10T08:19:23.677Z,0.31
2017-03-10T08:20:33.987Z,0.31
2017-03-10T08:21:44.678Z,0.27
2017-03-10T08:22:55.399Z,0.42
2017-03-10T08:24:06.103Z,0.33
2017-03-10T08:25:16.817Z,0.36
2017-03-10T08:26:27.524Z,0.29
2017-03-10T08:27:37.834Z,0.49
2017-03-10T08:28:48.548Z,0.55
2017-03-10T08:29:59.245Z,0.49
2017-03-10T08:31:09.942Z,0.61
2017-03-10T08:32:20.658Z,0.61
2017-03-10T08:33:31.377Z,0.55
2017-03-10T08:34:41.695Z,0.63
2017-03-10T08:35:52.406Z,0.74
2017-03-10T08:37:03.148Z,0.78
2017-03-10T08:38:13.452Z,0.78
2017-03-10T08:39:24.153Z,0.81
2017-03-10T08:40:34.853Z,0.88
2017-03-10T08:41:45.563Z,0.99
2017-03-10T08:42:56.271Z,1.06
2017-03-10T08:44:06.972Z,1.07
2017-03-10T08:45:17.687Z,1.06
2017-03-10T08:46:28.393Z,1.1
2017-03-10T08:47:38.695Z,1.12
2017-03-10T08:48:49.393Z,1.12
2017-03-10T08:49:59.711Z,1.09
2017-03-10T08:51:10.465Z,1.12
2017-03-10T08:52:21.216Z,1.09
2017-03-10T08:53:31.546Z,1.16
2017-03-10T08:54:42.256Z,1.2
2017-03-10T08:55:52.979Z,1.2
2017-03-10T08:57:03.692Z,1.18
2017-03-10T08:58:14.399Z,1.24
2017-03-10T08:59:24.709Z,1.22
2017-03-10T09:00:35.415Z,1.3
2017-03-10T09:01:46.139Z,1.36
2017-03-10T09:02:56.859Z,1.43
2017-03-10T09:04:07.563Z,1.45
2017-03-10T09:05:17.868Z,1.49
2017-03-10T09:06:28.170Z,1.5
2017-03-10T09:07:38.872Z,1.53
2017-03-10T09:08:49.600Z,1.67
2017-03-10T09:09:59.927Z,1.74
2017-03-10T09:11:10.241Z,1.85
2017-03-10T09:12:20.948Z,1.89
2017-03-10T09:13:31.684Z,1.93
2017-03-10T09:14:42.392Z,1.92
2017-03-10T09:15:53.087Z,2
2017-03-10T09:17:03.795Z,1.97
2017-03-10T09:18:14.527Z,2.04
2017-03-10T09:19:25.218Z,2.05
2017-03-10T09:20:35.536Z,2.07
2017-03-10T09:21:46.250Z,2.04
2017-03-10T09:22:56.960Z,2.01
2017-03-10T09:24:07.674Z,2.21
2017-03-10T09:25:18.372Z,2.25
2017-03-10T09:26:29.096Z,2.26
2017-03-10T09:27:39.840Z,2.4
2017-03-10T09:28:50.531Z,2.52
2017-03-10T09:30:01.249Z,2.58
2017-03-10T09:31:11.979Z,2.61
2017-03-10T09:32:22.686Z,2.73
2017-03-10T09:33:33.002Z,2.72
2017-03-10T09:34:43.718Z,2.87
2017-03-10T09:35:54.445Z,2.91
2017-03-10T09:37:05.144Z,2.87
2017-03-10T09:38:15.860Z,3
2017-03-10T09:39:26.582Z,2.88
2017-03-10T09:40:37.300Z,2.94
2017-03-10T09:41:48.029Z,2.95
2017-03-10T09:42:58.766Z,2.98
2017-03-10T09:44:09.492Z,3.12
2017-03-10T09:45:19.805Z,2.97
2017-03-10T09:46:30.114Z,3
2017-03-10T09:47:40.025Z,3.03
2017-03-10T09:48:50.745Z,3.13
2017-03-10T09:50:01.447Z,3.12
2017-03-10T09:51:11.364Z,3.26
2017-03-10T09:52:22.092Z,3.31
2017-03-10T09:53:32.799Z,3.48
2017-03-10T09:54:43.504Z,3.61
2017-03-10T09:55:54.238Z,3.68
2017-03-10T09:57:04.941Z,3.67
2017-03-10T09:58:15.669Z,3.78
2017-03-10T09:59:26.369Z,3.81
2017-03-10T10:00:36.674Z,4
2017-03-10T10:01:47.421Z,3.94
2017-03-10T10:02:58.134Z,3.91
2017-03-10T10:04:08.847Z,3.67
2017-03-10T10:05:18.771Z,3.52
2017-03-10T10:06:29.469Z,3.61
2017-03-10T10:07:39.391Z,3.63
2017-03-10T10:08:50.108Z,3.82
2017-03-10T10:10:00.843Z,3.77
2017-03-10T10:11:11.167Z,3.74
2017-03-10T10:12:21.880Z,3.56
2017-03-10T10:13:32.607Z,3.43
2017-03-10T10:14:43.337Z,3.36
2017-03-10T10:15:53.639Z,3.22
2017-03-10T10:17:03.952Z,3.22
2017-03-10T10:18:14.269Z,3.11
2017-03-10T10:19:24.974Z,3.11
2017-03-10T10:20:35.699Z,3.18
2017-03-10T10:21:46.404Z,3.22
2017-03-10T10:22:57.133Z,3.27
2017-03-10T10:24:07.849Z,3.16
2017-03-10T10:25:18.185Z,3.37
2017-03-10T10:26:28.896Z,3.43
2017-03-10T10:27:39.203Z,3.36
2017-03-10T10:28:49.927Z,3.45
2017-03-10T10:30:00.651Z,3.58
2017-03-10T10:31:10.972Z,3.64
2017-03-10T10:32:21.676Z,3.7
2017-03-10T10:33:31.615Z,3.82
2017-03-10T10:34:42.324Z,3.78
2017-03-10T10:35:53.057Z,3.92
2017-03-10T10:37:03.780Z,3.99
2017-03-10T10:38:14.540Z,3.92
2017-03-10T10:39:25.294Z,4
2017-03-10T10:40:35.622Z,4.06
2017-03-10T10:41:45.954Z,4.1
2017-03-10T10:42:56.652Z,4.12
2017-03-10T10:44:07.378Z,4.21
2017-03-10T10:45:18.104Z,4.32
2017-03-10T10:46:28.803Z,4.57
2017-03-10T10:47:39.528Z,4.64
2017-03-10T10:48:50.255Z,4.78
2017-03-10T10:50:00.982Z,4.97
2017-03-10T10:51:11.319Z,5.13
2017-03-10T10:52:22.043Z,5.23
2017-03-10T10:53:32.774Z,5.28
2017-03-10T10:54:43.505Z,5.46
2017-03-10T10:55:54.229Z,5.64
2017-03-10T10:57:04.942Z,5.76
2017-03-10T10:58:15.661Z,5.88
2017-03-10T10:59:26.366Z,5.95
2017-03-10T11:00:36.674Z,6.16
2017-03-10T11:01:47.425Z,6.25
2017-03-10T11:02:58.132Z,6.36
2017-03-10T11:04:08.847Z,6.43
2017-03-10T11:05:19.569Z,6.62
2017-03-10T11:06:30.283Z,6.7
2017-03-10T11:07:40.993Z,6.83
2017-03-10T11:08:51.718Z,7.07
2017-03-10T11:10:02.441Z,7.19
2017-03-10T11:11:12.767Z,7.58
2017-03-10T11:12:23.486Z,7.81
2017-03-10T11:13:33.456Z,8.09
2017-03-10T11:14:44.165Z,8.21
2017-03-10T11:15:54.897Z,8.39
2017-03-10T11:17:05.617Z,8.39
2017-03-10T11:18:16.331Z,8.44
2017-03-10T11:19:27.086Z,8.72
2017-03-10T11:20:37.404Z,8.95
2017-03-10T11:21:48.128Z,8.87
2017-03-10T11:22:58.892Z,8.82
2017-03-10T11:24:09.624Z,8.78
2017-03-10T11:25:20.363Z,8.86
2017-03-10T11:26:31.087Z,8.87
2017-03-10T11:27:41.800Z,8.95
2017-03-10T11:28:52.529Z,9.09
2017-03-10T11:30:02.848Z,9.26
2017-03-10T11:31:13.600Z,9.16
2017-03-10T11:32:24.308Z,9.03
2017-03-10T11:33:35.034Z,9.11
2017-03-10T11:34:45.767Z,8.86
2017-03-10T11:35:56.516Z,8.97
2017-03-10T11:37:06.841Z,9.19
2017-03-10T11:38:17.560Z,9.18
2017-03-10T11:39:28.274Z,9.3
2017-03-10T11:40:39.007Z,9.59
2017-03-10T11:41:49.714Z,9.84
2017-03-10T11:43:00.430Z,10.36
2017-03-10T11:44:11.157Z,10.65
2017-03-10T11:45:21.865Z,10.89
2017-03-10T11:46:32.575Z,10.94
2017-03-10T11:47:43.320Z,10.87
2017-03-10T11:48:54.023Z,11.08
2017-03-10T11:50:04.752Z,11.27
2017-03-10T11:51:15.073Z,11.26
2017-03-10T11:52:25.396Z,11.31
2017-03-10T11:53:36.122Z,11.23
2017-03-10T11:54:46.858Z,11.16
2017-03-10T11:55:57.581Z,11.25
2017-03-10T11:57:08.312Z,11.53
2017-03-10T11:58:19.035Z,11.63
2017-03-10T11:59:29.783Z,12.02
2017-03-10T12:00:40.136Z,12.5
2017-03-10T12:01:50.870Z,13.12
2017-03-10T12:03:01.597Z,13.68
2017-03-10T12:04:12.318Z,14.08
2017-03-10T12:05:23.039Z,14.55
2017-03-10T12:06:33.777Z,15.08
2017-03-10T12:07:44.102Z,15.39
2017-03-10T12:08:54.831Z,15.7
2017-03-10T12:10:05.561Z,15.87
2017-03-10T12:11:16.312Z,16.22
2017-03-10T12:12:27.062Z,16.47
2017-03-10T12:13:37.791Z,16.82
2017-03-10T12:14:48.533Z,17.17
2017-03-10T12:15:59.264Z,17.35
2017-03-10T12:17:09.987Z,17.63
2017-03-10T12:18:19.936Z,18
2017-03-10T12:19:30.675Z,18.05
2017-03-10T12:20:41.110Z,18.09
2017-03-10T12:21:51.842Z,18.27
2017-03-10T12:23:02.581Z,18.21
2017-03-10T12:24:13.359Z,18.31
2017-03-10T12:25:24.076Z,18.27
2017-03-10T12:26:34.792Z,18.34
2017-03-10T12:27:45.112Z,18.36
2017-03-10T12:28:55.837Z,18.23
2017-03-10T12:30:06.560Z,18.51
2017-03-10T12:31:16.901Z,18.81
2017-03-10T12:32:27.665Z,18.88
2017-03-10T12:33:38.412Z,18.91
2017-03-10T12:34:49.147Z,18.76
2017-03-10T12:35:59.879Z,18.6
2017-03-10T12:37:10.214Z,18.73
2017-03-10T12:38:20.541Z,18.42
2017-03-10T12:39:31.304Z,18.31
2017-03-10T12:40:41.236Z,17.86
2017-03-10T12:41:51.570Z,17.52
2017-03-10T12:43:02.302Z,16.86
2017-03-10T12:44:13.026Z,16.12
2017-03-10T12:45:23.758Z,15.3
2017-03-10T12:46:34.475Z,15.07
2017-03-10T12:47:46.901Z,14.97
2017-03-10T12:48:57.234Z,14.62
2017-03-10T12:50:07.978Z,14.44
2017-03-10T12:51:18.702Z,14.67
2017-03-10T12:52:29.413Z,14.78
2017-03-10T12:53:40.140Z,14.59
2017-03-10T12:54:50.877Z,14.45
2017-03-10T12:56:01.609Z,14.59
2017-03-10T12:57:12.337Z,15.1
2017-03-10T12:58:23.079Z,15.54
2017-03-10T12:59:33.828Z,15.69
2017-03-10T13:00:44.168Z,15.92
2017-03-10T13:01:54.908Z,15.76
2017-03-10T13:03:05.652Z,15.92
2017-03-10T13:04:16.365Z,15.9
2017-03-10T13:05:26.700Z,16.02
2017-03-10T13:06:37.448Z,16.08
2017-03-10T13:07:48.226Z,16.16
2017-03-10T13:08:58.543Z,16.24
2017-03-10T13:10:08.870Z,16.25
2017-03-10T13:11:19.607Z,16.17
2017-03-10T13:12:30.338Z,15.94
2017-03-10T13:13:41.061Z,15.67
2017-03-10T13:14:51.393Z,15.1
2017-03-10T13:16:02.104Z,14.63
2017-03-10T13:17:12.441Z,14.18
2017-03-10T13:18:23.152Z,13.76
2017-03-10T13:19:33.882Z,13.62
2017-03-10T13:20:44.607Z,13.45
2017-03-10T13:21:55.338Z,13.39
2017-03-10T13:23:05.653Z,13.27
2017-03-10T13:24:16.370Z,13.13
2017-03-10T13:25:27.119Z,12.95
2017-03-10T13:26:37.837Z,12.88
2017-03-10T13:27:48.569Z,12.48
2017-03-10T13:28:59.294Z,12.28
2017-03-10T13:30:10.011Z,12.2
2017-03-10T13:31:20.733Z,12.1
2017-03-10T13:32:31.453Z,12.12
2017-03-10T13:33:41.375Z,12.11
2017-03-10T13:34:52.088Z,11.74
2017-03-10T13:36:02.824Z,11.55
2017-03-10T13:37:13.540Z,11.27
2017-03-10T13:38:24.304Z,11.02
2017-03-10T13:39:35.034Z,10.71
2017-03-10T13:40:45.373Z,10.69
2017-03-10T13:41:56.100Z,10.57
2017-03-10T13:43:06.826Z,10.55
2017-03-10T13:44:17.566Z,10.45
2017-03-10T13:45:28.304Z,10.3
2017-03-10T13:46:38.613Z,10.15
2017-03-10T13:47:49.339Z,10.07
2017-03-10T13:49:00.060Z,9.9
2017-03-10T13:50:10.775Z,9.84
2017-03-10T13:51:21.490Z,9.94
2017-03-10T13:52:32.234Z,10.05
2017-03-10T13:53:42.950Z,10.15
2017-03-10T13:54:53.685Z,10.23
2017-03-10T13:56:04.436Z,9.97
2017-03-10T13:57:14.749Z,9.94
2017-03-10T13:58:25.489Z,9.8
2017-03-10T13:59:36.209Z,9.7
2017-03-10T14:00:46.923Z,9.85
2017-03-10T14:01:57.241Z,9.77
2017-03-10T14:03:07.964Z,9.66
2017-03-10T14:04:18.685Z,9.58
2017-03-10T14:05:29.393Z,9.47
2017-03-10T14:06:40.155Z,9.31
2017-03-10T14:07:50.873Z,9.18
2017-03-10T14:09:01.571Z,9
2017-03-10T14:10:12.299Z,8.84
2017-03-10T14:11:23.017Z,8.64
2017-03-10T14:12:33.717Z,8.53
2017-03-10T14:13:44.042Z,8.34
2017-03-10T14:14:54.361Z,8.26
2017-03-10T14:16:05.113Z,8.17
2017-03-10T14:17:15.825Z,8.21
2017-03-10T14:18:26.562Z,8.09
2017-03-10T14:19:37.297Z,8.06
2017-03-10T14:20:48.012Z,8.06
2017-03-10T14:21:58.728Z,8.05
2017-03-10T14:23:09.050Z,8.14
2017-03-10T14:24:19.762Z,8.02
2017-03-10T14:25:30.517Z,8.05
2017-03-10T14:26:41.218Z,8.21
2017-03-10T14:27:51.523Z,8.2
2017-03-10T14:29:02.243Z,8.18
2017-03-10T14:30:12.961Z,8.49
2017-03-10T14:31:23.676Z,8.46
2017-03-10T14:32:33.983Z,8.56
2017-03-10T14:33:44.296Z,8.66
2017-03-10T14:34:55.043Z,8.75
2017-03-10T14:36:05.376Z,8.78
2017-03-10T14:37:15.703Z,8.75
2017-03-10T14:38:26.416Z,8.9
2017-03-10T14:39:37.145Z,8.84
2017-03-10T14:40:47.871Z,8.86
2017-03-10T14:41:58.185Z,8.86
2017-03-10T14:43:08.506Z,8.99
2017-03-10T14:44:19.239Z,8.92
2017-03-10T14:45:29.972Z,8.87
2017-03-10T14:46:40.689Z,8.82
2017-03-10T14:47:51.428Z,8.81
2017-03-10T14:49:01.351Z,8.79
2017-03-10T14:50:12.097Z,9.02
2017-03-10T14:51:22.819Z,9.66
2017-03-10T14:52:33.156Z,9.88
2017-03-10T14:53:43.871Z,9.9
2017-03-10T14:54:53.803Z,9.73
2017-03-10T14:56:04.141Z,9.62
2017-03-10T14:57:14.468Z,9.51
2017-03-10T14:58:25.190Z,9.37
2017-03-10T14:59:35.521Z,9.31
2017-03-10T15:00:46.227Z,9.21
2017-03-10T15:01:56.980Z,9.16
2017-03-10T15:03:07.694Z,9.24
2017-03-10T15:04:18.424Z,9.3
2017-03-10T15:05:28.775Z,9.34
2017-03-10T15:06:39.510Z,9.44
2017-03-10T15:07:49.824Z,9.44
2017-03-10T15:09:00.560Z,9.42
2017-03-10T15:10:11.275Z,9.47
2017-03-10T15:11:22.003Z,9.3
2017-03-10T15:12:32.742Z,9.37
2017-03-10T15:13:43.480Z,9.34
2017-03-10T15:14:53.796Z,9.34
2017-03-10T15:16:04.113Z,9.42
2017-03-10T15:17:14.069Z,9.37
2017-03-10T15:18:24.790Z,9.26
2017-03-10T15:19:35.505Z,9.11
2017-03-10T15:20:45.832Z,9.09
2017-03-10T15:21:56.536Z,8.99
2017-03-10T15:23:06.885Z,8.75
2017-03-10T15:24:17.601Z,8.81
2017-03-10T15:25:28.320Z,8.78
2017-03-10T15:26:39.073Z,8.66
2017-03-10T15:27:49.785Z,8.72